Time;durP1;ratioP1;P1;durP2;ratioP2;P2;SDS_P1;SDS_P2;PMS_P1;PMS_P2;Temp;Humidity;BMP_temperature;BMP_pressure;BME280_temperature;BME280_humidity;BME280_pressure;Samples;Min_cycle;Max_cycle;Signal;HPM_P1;HPM_P2
2022/08/03 00:00:31;;;;;;;13.70;6.33;;;;;;;14.43;100.00;101580.69;4914299;29;20083;-76
2022/08/03 00:09:33;;;;;;;14.00;5.93;;;;;;;14.18;100.00;101571.81;5627918;23;20513;-78
2022/08/03 00:11:59;;;;;;;11.38;5.35;;;;;;;14.13;100.00;101563.41;4882903;29;20040;-77
2022/08/03 00:14:27;;;;;;;9.45;5.97;;;;;;;14.27;100.00;101592.22;4883375;29;20051;-78
2022/08/03 00:16:53;;;;;;;10.83;5.50;;;;;;;14.18;100.00;101577.16;4882747;29;20051;-77
2022/08/03 00:19:19;;;;;;;6.40;5.37;;;;;;;14.00;100.00;101541.66;4884213;29;20040;-77
2022/08/03 00:21:44;;;;;;;8.93;5.87;;;;;;;14.16;100.00;101579.16;4882346;29;20071;-75
2022/08/03 00:24:10;;;;;;;6.90;5.53;;;;;;;14.22;100.00;101578.50;4882017;29;20040;-75
2022/08/03 00:26:36;;;;;;;12.13;5.70;;;;;;;14.19;100.00;101586.88;4883923;29;20051;-77
2022/08/03 00:29:02;;;;;;;7.90;5.53;;;;;;;14.07;100.00;101566.75;4886232;29;20040;-77
2022/08/03 00:31:28;;;;;;;7.80;6.00;;;;;;;14.19;100.00;101584.19;4887264;29;20107;-76
2022/08/03 00:33:53;;;;;;;8.77;5.83;;;;;;;14.18;100.00;101583.38;4887958;29;20036;-77
2022/08/03 00:36:19;;;;;;;10.63;6.77;;;;;;;14.03;100.00;101552.03;4886926;29;20035;-76
2022/08/03 00:56:28;;;;;;;7.83;7.03;;;;;;;14.12;100.00;101588.53;5158875;23;20112;-76
2022/08/03 00:58:56;;;;;;;12.80;7.33;;;;;;;14.00;100.00;101576.47;4919846;29;20509;-75
2022/08/03 01:01:22;;;;;;;;;;;;;;;14.11;100.00;101582.31;4919780;29;20028;-76
2022/08/03 01:03:47;;;;;;;10.53;7.07;;;;;;;14.07;100.00;101585.50;4919198;29;19930;-76
2022/08/03 01:06:19;;;;;;;10.17;7.87;;;;;;;14.08;100.00;101600.56;4920004;29;20040;-75
2022/08/03 01:08:51;;;;;;;12.90;8.13;;;;;;;14.05;100.00;101598.22;4920669;29;20036;-76
2022/08/03 01:11:29;;;;;;;10.13;6.77;;;;;;;14.04;100.00;101604.59;4921113;29;20036;-75
2022/08/03 01:14:13;;;;;;;11.32;6.95;;;;;;;14.02;100.00;101604.75;4903616;29;20032;-76
2022/08/03 01:17:12;;;;;;;11.87;9.00;;;;;;;14.02;100.00;101604.75;4919917;29;20534;-77
2022/08/03 01:19:54;;;;;;;10.55;7.47;;;;;;;14.00;100.00;101604.09;4920066;29;20500;-76
2022/08/03 01:22:48;;;;;;;14.27;7.80;;;;;;;14.00;100.00;101604.09;4920033;29;20138;-74
2022/08/03 01:25:33;;;;;;;9.03;7.47;;;;;;;13.97;100.00;101604.41;4920557;29;20090;-75
2022/08/03 01:28:02;;;;;;;12.30;7.30;;;;;;;14.00;100.00;101605.94;4920370;29;20046;-76
2022/08/03 01:30:31;;;;;;;12.80;7.20;;;;;;;13.99;100.00;101604.25;4922834;29;20043;-75
2022/08/03 01:33:04;;;;;;;13.87;7.47;;;;;;;14.01;100.00;101607.59;4921312;29;20131;-77
2022/08/03 01:35:41;;;;;;;11.47;7.73;;;;;;;13.97;100.00;101595.53;4920124;29;20071;-75
2022/08/03 01:48:57;;;;;;;7.50;6.63;;;;;;;13.82;100.00;101582.78;5575599;23;20076;-76
2022/08/03 01:51:23;;;;;;;11.83;7.37;;;;;;;13.88;100.00;101587.50;4901089;29;20096;-76
2022/08/03 01:54:03;;;;;;;14.40;7.50;;;;;;;13.77;100.00;101562.84;4884672;29;20047;-76
2022/08/03 01:56:30;;;;;;;10.23;7.30;;;;;;;13.84;100.00;101586.13;4901063;29;20036;-76
2022/08/03 01:58:59;;;;;;;8.90;7.47;;;;;;;13.98;100.00;101602.56;4890474;29;20040;-78
2022/08/03 02:01:27;;;;;;;9.43;7.40;;;;;;;13.85;100.00;101587.81;4910909;29;20039;-79
2022/08/03 02:03:56;;;;;;;9.30;7.80;;;;;;;13.77;100.00;101576.25;4892896;29;20123;-77
2022/08/03 02:18:27;;;;;;;11.97;7.13;;;;;;;14.01;100.00;101599.56;4917663;29;20058;-76
2022/08/03 02:20:54;;;;;;;10.40;7.73;;;;;;;13.94;100.00;101594.88;4924212;29;20048;-78
2022/08/03 02:23:19;;;;;;;9.70;7.33;;;;;;;13.92;100.00;101586.16;4903328;29;20030;-75
2022/08/03 02:25:50;;;;;;;10.47;8.33;;;;;;;13.81;100.00;101577.59;4905606;29;20523;-74
2022/08/03 02:28:19;;;;;;;9.30;7.10;;;;;;;13.86;100.00;101583.28;4920101;29;20032;-75
2022/08/03 02:42:04;;;;;;;9.23;8.17;;;;;;;14.00;100.00;101595.22;5103916;23;20346;-77
2022/08/03 03:02:30;;;;;;;13.27;8.30;;;;;;;14.27;100.00;101605.63;4925400;29;20060;-76
2022/08/03 03:04:58;;;;;;;9.60;7.60;;;;;;;14.27;100.00;101598.44;4898345;29;20137;-75
2022/08/03 03:07:25;;;;;;;8.20;7.40;;;;;;;14.37;100.00;101608.16;4896421;29;20039;-77
2022/08/03 03:09:52;;;;;;;12.93;7.97;;;;;;;14.41;100.00;101613.00;4897524;29;20136;-77
2022/08/03 03:12:20;;;;;;;9.50;8.00;;;;;;;14.41;100.00;101598.75;4891645;29;20031;-76
2022/08/03 03:14:45;;;;;;;9.80;7.53;;;;;;;14.57;100.00;101618.41;4887601;29;20084;-76
2022/08/03 03:17:13;;;;;;;11.20;7.90;;;;;;;14.65;100.00;101616.72;4887208;29;20040;-75
2022/08/03 03:19:41;;;;;;;9.85;6.60;;;;;;;15.72;100.00;101616.31;4890142;29;20475;-77
2022/08/03 03:22:08;;;;;;;10.88;6.05;;;;;;;17.75;93.12;101600.22;4895753;29;20041;-77
2022/08/03 03:24:35;;;;;;;8.27;5.30;;;;;;;19.89;81.59;101633.88;4896934;29;20103;-77
2022/08/03 03:27:02;;;;;;;8.70;6.22;;;;;;;21.30;74.88;101621.09;4899024;29;20047;-74
2022/08/03 03:48:04;;;;;;;6.75;3.22;;;;;;;19.36;76.19;101659.78;5445756;23;20301;-75
2022/08/03 04:00:34;;;;;;;9.98;4.82;;;;;;;17.43;86.95;101672.28;5485920;23;20132;-76
2022/08/03 04:02:59;;;;;;;10.52;6.10;;;;;;;17.49;86.93;101676.09;4884192;29;20048;-76
2022/08/03 04:11:35;;;;;;;8.25;5.18;;;;;;;17.14;88.31;101662.31;4901802;29;20048;-77
2022/08/03 04:14:08;;;;;;;7.50;5.07;;;;;;;17.20;88.63;101660.75;4881017;29;20048;-77
2022/08/03 04:16:37;;;;;;;11.02;5.88;;;;;;;17.39;87.58;101662.91;4880297;29;20047;-78
2022/08/03 04:19:09;;;;;;;8.88;5.13;;;;;;;17.84;85.86;101666.41;4897416;29;20524;-77
2022/08/03 04:41:31;;;;;;;9.15;5.25;;;;;;;18.27;85.39;101699.72;4899318;29;20144;-79
2022/08/03 05:02:30;;;;;;;8.48;3.17;;;;;;;23.58;63.54;101700.66;5427604;23;20064;-77
2022/08/03 05:04:55;;;;;;;5.60;2.88;;;;;;;23.98;60.36;101665.66;4903996;29;20048;-77
2022/08/03 05:07:58;;;;;;;3.03;2.50;;;;;;;24.71;60.59;101709.88;4902567;29;20527;-75
2022/08/03 05:10:27;;;;;;;4.70;2.40;;;;;;;24.92;57.92;101710.38;4905202;29;20463;-76
2022/08/03 05:12:53;;;;;;;5.72;2.00;;;;;;;24.47;58.68;101693.69;4903356;29;20043;-75
2022/08/03 05:15:37;;;;;;;4.00;2.00;;;;;;;23.84;61.33;101711.25;4903808;29;20039;-76
2022/08/03 05:29:10;;;;;;;5.22;2.75;;;;;;;19.33;78.65;101720.44;4906231;23;20170;-78
2022/08/03 05:31:35;;;;;;;4.32;2.75;;;;;;;19.12;79.09;101696.19;4866196;29;20527;-80
2022/08/03 05:55:31;;;;;;;6.88;3.40;;;;;;;18.73;81.45;101692.09;4813368;29;20095;-79
2022/08/03 05:58:02;;;;;;;7.30;3.75;;;;;;;18.99;81.02;101707.69;4808894;29;20435;-80
2022/08/03 06:07:57;;;;;;;5.80;3.13;;;;;;;19.29;78.61;101696.72;4905911;29;20417;-76
2022/08/03 06:14:08;;;;;;;4.88;2.25;;;;;;;19.62;77.65;101734.78;5500266;23;20060;-78
2022/08/03 06:16:39;;;;;;;5.60;3.50;;;;;;;19.60;77.73;101753.91;4921341;29;20028;-78
2022/08/03 06:19:26;;;;;;;6.22;3.47;;;;;;;19.45;77.60;101718.88;4914247;29;20122;-75
2022/08/03 06:22:52;;;;;;;4.93;3.40;;;;;;;19.55;77.95;101712.28;4934652;29;20052;-74
2022/08/03 06:25:19;;;;;;;5.30;2.78;;;;;;;19.69;77.12;101714.91;4893285;29;20079;-77
2022/08/03 06:46:52;;;;;;;5.80;3.07;;;;;;;19.92;77.01;101722.69;4918083;29;20098;-76
2022/08/03 06:53:34;;;;;;;4.07;2.92;;;;;;;19.90;77.20;101738.28;4931052;29;20076;-77
2022/08/03 06:56:31;;;;;;;4.50;3.38;;;;;;;20.18;78.24;101777.91;4932667;29;20068;-78
2022/08/03 06:58:56;;;;;;;4.47;3.58;;;;;;;20.34;77.86;101762.19;4938367;29;20148;-78
2022/08/03 07:01:22;;;;;;;6.20;3.30;;;;;;;20.47;77.29;101766.84;4939464;29;20036;-76
2022/08/03 07:03:47;;;;;;;6.38;3.67;;;;;;;20.45;77.28;101763.50;4936513;29;20499;-81
2022/08/03 07:06:13;;;;;;;7.53;3.60;;;;;;;20.38;77.35;101763.44;4919166;29;20488;-80
2022/08/03 07:08:38;;;;;;;5.53;4.93;;;;;;;20.42;78.00;101774.72;4917867;29;20556;-82
2022/08/03 07:11:04;;;;;;;7.60;4.68;;;;;;;20.47;77.88;101772.25;4900793;29;20036;-81
2022/08/03 07:13:29;;;;;;;6.72;4.28;;;;;;;20.19;77.54;101736.31;4919654;29;20091;-80
2022/08/03 07:15:55;;;;;;;6.40;3.90;;;;;;;20.51;77.54;101778.91;4919677;29;20036;-78
2022/08/03 07:18:23;;;;;;;5.30;3.70;;;;;;;20.51;77.39;101778.91;4918151;29;20078;-81
2022/08/03 07:20:49;;;;;;;;;;;;;;;20.58;77.72;101779.78;4916665;29;20055;-81
2022/08/03 07:23:14;;;;;;;6.30;3.90;;;;;;;20.63;77.69;101771.88;4917036;29;19919;-77
2022/08/03 07:25:40;;;;;;;6.40;4.15;;;;;;;20.70;76.85;101774.59;4899438;29;20047;-82
2022/08/03 07:31:42;;;;;;;7.22;4.85;;;;;;;21.03;76.45;101774.66;4916640;29;20106;-82
2022/08/03 07:34:08;;;;;;;9.10;5.30;;;;;;;21.12;75.81;101776.13;4898244;29;20408;-79
2022/08/03 07:36:34;;;;;;;6.38;4.93;;;;;;;21.02;75.89;101781.94;4915913;29;20055;-82
2022/08/03 07:38:59;;;;;;;6.75;5.13;;;;;;;20.80;76.81;101766.06;4914600;29;20047;-79
2022/08/03 07:54:04;;;;;;;8.15;5.75;;;;;;;20.84;75.15;101761.94;4915732;29;20125;-79
2022/08/03 07:56:30;;;;;;;8.13;6.47;;;;;;;21.07;76.14;101794.03;4917137;29;20135;-76
2022/08/03 07:58:55;;;;;;;8.25;5.53;;;;;;;21.16;75.86;101787.38;4916529;29;20135;-73
2022/08/03 08:01:22;;;;;;;10.95;6.80;;;;;;;21.29;75.64;101790.97;4917632;29;20044;-74
2022/08/03 08:03:48;;;;;;;10.20;5.88;;;;;;;21.39;74.55;101797.81;4916259;29;20389;-74
2022/08/03 08:06:16;;;;;;;9.30;6.30;;;;;;;21.25;74.61;101792.41;4915659;29;20039;-73
2022/08/03 08:08:45;;;;;;;12.15;6.05;;;;;;;21.23;75.64;101791.78;4914404;29;20104;-73
2022/08/03 08:11:10;;;;;;;10.40;6.50;;;;;;;21.26;75.64;101793.25;4915765;29;20492;-74
2022/08/03 08:13:37;;;;;;;16.70;6.97;;;;;;;21.25;75.03;101792.41;4915707;29;20078;-75
2022/08/03 08:16:03;;;;;;;10.77;5.57;;;;;;;21.14;75.08;101789.47;4916203;29;20036;-74
2022/08/03 08:18:29;;;;;;;8.65;5.90;;;;;;;21.05;75.62;101794.25;4916122;29;20040;-75
2022/08/03 08:20:55;;;;;;;10.98;5.93;;;;;;;21.05;76.63;101802.34;4915743;29;20044;-76
2022/08/03 08:23:23;;;;;;;7.85;6.40;;;;;;;21.09;76.30;101800.91;4915331;29;20143;-74
2022/08/03 08:25:52;;;;;;;9.77;6.25;;;;;;;21.21;76.47;101796.56;4915558;29;20146;-73
2022/08/03 08:28:20;;;;;;;8.68;6.55;;;;;;;21.40;76.27;101803.06;4915730;29;20095;-74
2022/08/03 08:30:55;;;;;;;10.77;6.28;;;;;;;21.46;75.28;101790.53;4916132;29;20048;-79
2022/08/03 08:33:21;;;;;;;9.50;5.85;;;;;;;21.39;74.56;101801.38;4917858;29;20039;-75
2022/08/03 08:35:46;;;;;;;7.35;5.55;;;;;;;21.12;75.48;101805.09;4898810;29;20028;-78
2022/08/03 08:38:15;;;;;;;11.82;5.65;;;;;;;20.81;76.87;101811.06;4916561;29;20060;-74
2022/08/03 08:40:54;;;;;;;10.40;6.47;;;;;;;20.63;77.97;101798.94;4916375;29;20231;-74
2022/08/03 08:43:20;;;;;;;9.05;5.45;;;;;;;20.59;77.83;101791.44;4916241;29;20108;-78
2022/08/03 08:45:50;;;;;;;12.18;6.18;;;;;;;20.62;78.61;101786.47;4916886;29;20385;-74
2022/08/03 08:48:22;;;;;;;13.75;6.10;;;;;;;20.67;77.59;101789.38;4918681;29;20066;-74
2022/08/03 08:50:51;;;;;;;13.90;6.72;;;;;;;20.67;77.56;101797.50;4920373;29;20060;-76
2022/08/03 08:53:18;;;;;;;9.75;6.47;;;;;;;20.66;77.75;101786.88;4905090;29;20032;-75
2022/08/03 08:55:46;;;;;;;9.13;6.23;;;;;;;20.71;77.09;101801.47;4920443;29;20545;-70
2022/08/03 08:58:15;;;;;;;;;;;;;;;20.70;76.30;101793.56;4921865;29;20380;-72
2022/08/03 09:00:44;;;;;;;6.93;4.50;;;;;;;20.60;77.01;101793.94;4920613;29;19941;-70
2022/08/03 09:03:13;;;;;;;8.13;5.38;;;;;;;20.55;77.58;101795.59;4921487;29;20402;-70
2022/08/03 09:05:41;;;;;;;10.40;6.05;;;;;;;20.50;78.68;101796.19;4903892;29;20068;-71
2022/08/03 09:08:07;;;;;;;4.10;3.65;;;;;;;20.60;76.97;101796.66;4921221;29;20071;-73
2022/08/03 09:10:34;;;;;;;7.43;4.18;;;;;;;20.73;77.06;101804.81;4921240;29;20078;-72
2022/08/03 09:13:00;;;;;;;6.88;4.97;;;;;;;20.84;76.64;101803.38;4904428;29;20046;-71
2022/08/03 09:15:31;;;;;;;5.03;3.10;;;;;;;20.88;76.67;101801.09;4920266;29;20115;-70
2022/08/03 09:17:58;;;;;;;5.43;4.20;;;;;;;21.01;75.66;101812.78;4922724;29;20481;-75
2022/08/03 09:20:26;;;;;;;6.97;4.93;;;;;;;21.00;75.28;101810.28;4922309;29;20169;-68
2022/08/03 09:22:53;;;;;;;14.73;4.82;;;;;;;20.94;75.43;101811.09;4922609;29;20032;-71
2022/08/03 09:25:26;;;;;;;8.68;4.95;;;;;;;21.00;75.73;101810.28;4904491;29;20468;-78
2022/08/03 09:27:55;;;;;;;6.05;4.40;;;;;;;21.14;74.91;101811.97;4904176;29;20043;-75
2022/08/03 09:30:21;;;;;;;7.47;4.03;;;;;;;21.16;74.35;101815.31;4923529;29;20121;-71
2022/08/03 09:32:46;;;;;;;11.27;4.68;;;;;;;21.06;74.52;101814.88;4923054;29;20095;-76
2022/08/03 09:35:13;;;;;;;6.65;3.72;;;;;;;21.01;74.32;101823.59;4927854;29;20032;-70
2022/08/03 09:37:39;;;;;;;6.15;4.05;;;;;;;20.91;75.17;101819.63;4923705;29;20035;-71
2022/08/03 09:40:06;;;;;;;6.63;4.32;;;;;;;20.88;75.37;101811.94;4903907;29;20047;-74
2022/08/03 09:42:37;;;;;;;6.65;4.05;;;;;;;20.58;74.54;101773.53;4926496;29;20055;-74
2022/08/03 09:45:03;;;;;;;13.60;4.15;;;;;;;20.86;75.37;101819.44;4925253;29;20048;-72
2022/08/03 09:47:31;;;;;;;4.65;4.07;;;;;;;20.93;75.31;101822.97;4920109;29;20071;-76
2022/08/03 09:50:00;;;;;;;6.75;4.50;;;;;;;20.91;75.20;101822.34;4920504;29;20560;-75
2022/08/03 09:52:35;;;;;;;11.68;4.20;;;;;;;20.94;74.32;101832.75;4919309;29;20191;-77
2022/08/03 09:55:08;;;;;;;6.05;4.00;;;;;;;20.87;74.62;101816.50;4920686;29;20091;-74
2022/08/03 09:57:33;;;;;;;6.50;3.60;;;;;;;20.84;73.92;101825.06;4925373;29;20040;-73
2022/08/03 10:00:10;;;;;;;9.52;4.38;;;;;;;20.82;74.24;101826.28;4924925;29;20079;-73
2022/08/03 10:02:37;;;;;;;4.70;3.35;;;;;;;20.86;73.97;101819.44;4927063;29;20040;-75
2022/08/03 10:05:04;;;;;;;10.82;4.07;;;;;;;20.89;73.93;101808.19;4926809;29;20488;-78
2022/08/03 10:07:44;;;;;;;12.75;5.78;;;;;;;21.04;73.15;101815.06;4925018;29;20047;-73
2022/08/03 10:10:11;;;;;;;7.57;3.47;;;;;;;21.09;72.62;101811.75;4907138;29;20046;-76
2022/08/03 10:12:38;;;;;;;45.40;6.80;;;;;;;21.23;71.53;101805.34;4922784;29;20036;-73
2022/08/03 10:15:04;;;;;;;45.20;8.40;;;;;;;21.41;71.63;101817.44;4917089;29;20056;-70
2022/08/03 10:17:30;;;;;;;4.30;3.13;;;;;;;21.39;70.73;101819.50;4918922;29;20074;-70
2022/08/03 10:19:59;;;;;;;3.90;2.90;;;;;;;21.42;70.26;101829.94;4918560;29;20115;-74
2022/08/03 10:22:34;;;;;;;4.78;2.38;;;;;;;21.48;70.17;101829.13;4900343;29;20071;-72
2022/08/03 10:25:07;;;;;;;9.18;3.42;;;;;;;21.55;70.67;101825.34;4917534;29;20433;-81
2022/08/03 10:27:38;;;;;;;4.80;3.40;;;;;;;21.64;69.93;101825.97;4916768;29;20079;-75
2022/08/03 10:30:17;;;;;;;5.03;2.45;;;;;;;21.79;68.76;101826.59;4916762;29;20072;-76
2022/08/03 10:32:51;;;;;;;8.35;2.45;;;;;;;21.96;68.11;101821.53;4899996;29;20040;-76
2022/08/03 10:35:20;;;;;;;11.45;2.70;;;;;;;22.02;67.42;101819.88;4917337;29;20072;-72
2022/08/03 10:38:00;;;;;;;2.40;1.92;;;;;;;22.07;66.72;101811.97;4916967;29;20032;-75
2022/08/03 10:40:28;;;;;;;3.38;1.90;;;;;;;22.10;66.29;101811.53;4916575;29;20035;-74
2022/08/03 10:42:58;;;;;;;14.02;3.25;;;;;;;22.14;67.48;101812.75;4916204;29;20115;-75
2022/08/03 10:45:26;;;;;;;8.63;3.22;;;;;;;22.12;66.55;101814.84;4916687;29;20055;-74
2022/08/03 10:47:54;;;;;;;;;;;;;;;22.13;66.88;101816.53;4916733;29;20438;-73
2022/08/03 10:50:23;;;;;;;5.30;2.47;;;;;;;22.06;66.72;101815.72;4916728;29;19919;-74
2022/08/03 10:53:02;;;;;;;7.38;3.47;;;;;;;22.14;67.12;101824.44;4916500;29;20126;-73
2022/08/03 10:58:43;;;;;;;3.20;2.10;;;;;;;22.19;65.86;101818.38;4916422;29;20050;-73
2022/08/03 11:01:12;;;;;;;10.27;2.42;;;;;;;22.23;65.92;101822.31;4915156;29;20492;-72
2022/08/03 11:03:53;;;;;;;6.55;3.20;;;;;;;22.23;65.99;101822.31;4916053;29;20063;-74
2022/08/03 11:06:19;;;;;;;8.80;2.50;;;;;;;22.16;65.09;101821.53;4916467;29;20036;-75
2022/08/03 11:08:47;;;;;;;6.60;2.90;;;;;;;22.35;65.50;101820.63;4916415;29;20161;-76
2022/08/03 11:11:15;;;;;;;6.43;2.53;;;;;;;22.54;64.84;101827.84;4916001;29;20172;-77
2022/08/03 11:14:02;;;;;;;5.28;3.10;;;;;;;22.66;63.80;101824.44;4917851;29;20044;-77
2022/08/03 11:16:28;;;;;;;6.53;2.22;;;;;;;22.53;63.30;101823.44;4916555;29;20134;-76
2022/08/03 11:18:59;;;;;;;7.22;2.38;;;;;;;22.51;64.80;101824.72;4916263;29;20551;-77
2022/08/03 11:21:48;;;;;;;7.28;2.60;;;;;;;22.63;64.14;101823.00;4915847;29;20066;-77
2022/08/03 11:24:35;;;;;;;3.35;2.63;;;;;;;22.67;64.30;101828.84;4893074;29;20046;-76
2022/08/03 11:27:18;;;;;;;3.67;1.63;;;;;;;22.70;63.07;101812.94;4915600;29;20036;-76
2022/08/03 11:29:56;;;;;;;3.17;1.92;;;;;;;22.75;63.77;101817.72;4916193;29;20048;-76
2022/08/03 11:32:36;;;;;;;10.75;6.20;;;;;;;22.93;63.74;101812.41;4916102;29;20040;-75
2022/08/03 11:35:17;;;;;;;6.20;3.08;;;;;;;23.19;63.19;101814.13;4915704;29;20032;-77
2022/08/03 11:38:00;;;;;;;3.97;2.20;;;;;;;23.29;61.92;101816.34;4916836;29;20140;-77
2022/08/03 11:40:49;;;;;;;5.93;3.53;;;;;;;23.33;62.15;101806.69;4916182;29;20075;-76
2022/08/03 11:43:29;;;;;;;5.13;2.67;;;;;;;23.26;61.32;101816.78;4917316;29;20040;-76
2022/08/03 11:46:20;;;;;;;4.47;2.33;;;;;;;23.08;60.79;101812.94;4916879;29;20602;-75
2022/08/03 11:48:49;;;;;;;3.35;2.38;;;;;;;22.94;60.76;101814.09;4915887;29;20059;-77
2022/08/03 11:51:32;;;;;;;5.63;2.15;;;;;;;22.89;62.33;101802.22;4915903;29;20040;-77
2022/08/03 11:54:05;;;;;;;3.95;2.58;;;;;;;22.65;62.05;101795.63;4916181;29;20519;-78
2022/08/03 11:56:48;;;;;;;6.95;2.38;;;;;;;22.74;61.89;101808.72;4916228;29;20400;-76
2022/08/03 11:59:15;;;;;;;12.57;4.82;;;;;;;22.85;62.30;101809.97;4916174;29;20074;-77
2022/08/03 12:02:07;;;;;;;5.47;2.40;;;;;;;22.84;61.17;101805.56;4916783;29;20063;-76
2022/08/03 12:04:52;;;;;;;11.00;6.18;;;;;;;22.75;62.28;101809.56;4927690;29;20028;-75
2022/08/03 12:07:17;;;;;;;7.95;2.70;;;;;;;22.57;60.88;101804.88;4939490;29;20044;-75
2022/08/03 12:10:03;;;;;;;3.88;2.05;;;;;;;22.68;61.54;101808.78;4940671;29;20045;-75
2022/08/03 12:12:29;;;;;;;3.63;1.90;;;;;;;22.78;61.53;101798.25;4939970;29;20035;-76
2022/08/03 12:14:54;;;;;;;3.45;2.00;;;;;;;22.80;60.50;101791.56;4939246;29;20032;-75
2022/08/03 12:17:20;;;;;;;5.80;2.00;;;;;;;22.88;60.68;101806.81;4923364;29;20036;-77
2022/08/03 12:19:45;;;;;;;4.07;2.30;;;;;;;22.91;60.99;101803.66;4940255;29;20020;-77
2022/08/03 12:22:12;;;;;;;2.83;2.17;;;;;;;22.88;60.45;101786.97;4932790;29;20044;-76
2022/08/03 12:24:41;;;;;;;10.88;3.78;;;;;;;22.91;60.94;101803.66;4920809;29;20087;-75
2022/08/03 12:27:07;;;;;;;7.03;3.08;;;;;;;23.01;61.78;101795.03;4920675;29;20040;-77
2022/08/03 12:29:32;;;;;;;5.47;3.03;;;;;;;23.07;61.97;101797.69;4920609;29;20453;-76
2022/08/03 12:32:01;;;;;;;5.70;3.08;;;;;;;23.09;60.73;101801.00;4921428;29;20131;-77
2022/08/03 12:34:57;;;;;;;4.22;2.13;;;;;;;23.01;60.15;101797.72;4905054;29;20032;-77
2022/08/03 12:37:24;;;;;;;5.38;2.80;;;;;;;22.99;61.07;101805.28;4920391;29;20064;-74
2022/08/03 12:39:55;;;;;;;3.13;2.33;;;;;;;22.86;60.67;101792.63;4923499;29;20522;-75
2022/08/03 12:42:20;;;;;;;3.50;2.30;;;;;;;22.83;60.46;101801.19;4920452;29;20044;-76
2022/08/03 12:44:49;;;;;;;4.72;2.55;;;;;;;22.81;60.87;101797.84;4919173;29;20081;-75
2022/08/03 12:47:15;;;;;;;8.73;3.10;;;;;;;22.80;61.59;101797.00;4919499;29;20103;-77
2022/08/03 12:49:49;;;;;;;5.32;2.67;;;;;;;22.83;61.23;101818.31;4918646;29;20127;-76
2022/08/03 12:52:16;;;;;;;8.15;3.22;;;;;;;22.81;61.00;101800.56;4919019;29;20065;-76
2022/08/03 12:54:43;;;;;;;6.10;2.33;;;;;;;22.82;60.60;101796.81;4919694;29;20119;-74
2022/08/03 12:57:11;;;;;;;5.88;2.75;;;;;;;22.72;60.90;101777.41;4920102;29;20050;-75
2022/08/03 12:59:41;;;;;;;;;;;;;;;22.89;61.56;101800.34;4902561;29;20127;-76
2022/08/03 13:02:19;;;;;;;5.97;2.50;;;;;;;22.85;61.25;101799.13;4918934;29;19983;-78
2022/08/03 13:04:46;;;;;;;4.78;2.65;;;;;;;22.78;60.38;101798.25;4919431;29;20036;-76
2022/08/03 13:07:14;;;;;;;5.95;2.63;;;;;;;22.68;61.56;101781.63;4919169;29;20072;-76
2022/08/03 13:09:42;;;;;;;5.93;2.50;;;;;;;22.78;60.69;101798.25;4920478;29;20036;-75
2022/08/03 13:12:09;;;;;;;;;;;;;;;22.88;61.67;101798.66;4923242;29;20295;-76
2022/08/03 13:14:35;;;;;;;3.67;2.47;;;;;;;22.81;61.17;101776.13;4886369;29;19919;-78
2022/08/03 13:17:00;;;;;;;6.00;2.75;;;;;;;22.95;61.03;101788.59;4919319;29;20051;-77
2022/08/03 13:19:26;;;;;;;5.38;3.95;;;;;;;22.91;60.40;101781.94;4901124;29;20095;-75
2022/08/03 13:21:51;;;;;;;5.82;2.35;;;;;;;22.84;60.59;101770.25;4917740;29;20484;-76
2022/08/03 13:24:18;;;;;;;5.18;2.50;;;;;;;22.82;60.82;101780.50;4901179;29;20084;-77
2022/08/03 13:26:44;;;;;;;10.43;2.97;;;;;;;22.87;60.88;101783.44;4901042;29;20510;-76
2022/08/03 13:29:12;;;;;;;5.75;3.05;;;;;;;22.80;60.62;101785.28;4918459;29;20478;-76
2022/08/03 13:31:52;;;;;;;9.55;2.75;;;;;;;22.70;60.83;101771.38;4879466;29;20041;-77
2022/08/03 13:34:30;;;;;;;4.68;3.40;;;;;;;22.59;60.99;101767.47;4876828;29;20048;-79
2022/08/03 13:36:56;;;;;;;3.15;1.98;;;;;;;22.72;61.27;101783.69;4877611;29;20045;-73
2022/08/03 13:39:43;;;;;;;5.15;3.00;;;;;;;22.73;61.42;101795.38;4877625;29;20408;-82
2022/08/03 13:42:17;;;;;;;3.42;2.35;;;;;;;22.66;61.69;101792.72;4893276;29;20040;-79
2022/08/03 13:45:33;;;;;;;4.18;2.50;;;;;;;22.72;61.73;101794.53;4858868;29;20493;-77
2022/08/03 13:48:20;;;;;;;5.38;2.63;;;;;;;22.63;62.25;101773.31;4879243;29;20153;-84
2022/08/03 13:51:20;;;;;;;;;;;;;;;22.81;62.17;101790.53;4902447;29;20054;-77
2022/08/03 13:54:20;;;;;;;5.65;2.65;;;;;;;22.69;62.70;101761.56;4881584;29;19920;-78
2022/08/03 13:56:51;;;;;;;8.80;3.28;;;;;;;22.79;63.13;101770.06;4878535;29;20055;-76
2022/08/03 13:59:38;;;;;;;5.95;2.83;;;;;;;22.85;62.83;101764.63;4866434;29;20040;-81
2022/08/03 14:02:07;;;;;;;4.93;2.75;;;;;;;22.83;61.90;101760.44;4899764;29;20048;-76
2022/08/03 14:04:33;;;;;;;18.50;13.93;;;;;;;22.91;62.13;101781.09;4931297;29;20134;-72
2022/08/03 14:07:00;;;;;;;46.53;37.05;;;;;;;22.83;62.47;101776.75;4927052;29;20075;-74
2022/08/03 14:09:26;;;;;;;7.80;2.90;;;;;;;22.85;62.59;101782.81;4930617;29;20067;-73
2022/08/03 14:11:53;;;;;;;3.42;3.13;;;;;;;22.78;62.72;101773.81;4920731;29;20082;-75
2022/08/03 14:14:18;;;;;;;7.65;3.40;;;;;;;22.84;62.98;101771.13;4917323;29;20519;-75
2022/08/03 14:16:44;;;;;;;5.82;2.72;;;;;;;22.82;62.92;101770.47;4900861;29;20040;-76
2022/08/03 14:19:09;;;;;;;3.70;2.47;;;;;;;22.88;63.03;101773.41;4917173;29;20032;-73
2022/08/03 14:21:35;;;;;;;6.18;3.22;;;;;;;22.82;62.44;101769.66;4917395;29;20047;-77
2022/08/03 14:24:01;;;;;;;6.00;3.95;;;;;;;22.81;63.22;101771.53;4916772;29;20051;-72
2022/08/03 14:26:27;;;;;;;4.30;2.90;;;;;;;22.79;63.26;101768.16;4917143;29;20091;-76
2022/08/03 14:28:52;;;;;;;4.28;2.85;;;;;;;22.78;63.56;101754.81;4915927;29;20044;-76
2022/08/03 14:31:18;;;;;;;5.00;2.45;;;;;;;22.83;63.51;101768.59;4917186;29;20036;-75
2022/08/03 14:33:43;;;;;;;4.95;3.65;;;;;;;22.83;64.43;101763.16;4917049;29;20047;-73
2022/08/03 14:36:09;;;;;;;3.00;2.05;;;;;;;22.79;63.54;101761.91;4929196;29;20062;-75
2022/08/03 14:38:34;;;;;;;4.50;2.92;;;;;;;22.83;63.77;101774.03;4931939;29;20044;-71
2022/08/03 14:41:00;;;;;;;8.32;2.80;;;;;;;22.81;63.83;101773.41;4932291;29;20044;-77
2022/08/03 14:43:26;;;;;;;6.10;2.83;;;;;;;22.78;63.71;101765.69;4934700;29;20036;-73
2022/08/03 14:45:52;;;;;;;4.70;2.60;;;;;;;22.81;63.83;101765.25;4920556;29;20122;-72
2022/08/03 14:48:23;;;;;;;3.65;2.55;;;;;;;22.81;64.39;101763.38;4917375;29;20631;-79
2022/08/03 14:50:51;;;;;;;6.22;3.97;;;;;;;22.94;64.34;101770.63;4917841;29;20091;-74
2022/08/03 14:53:17;;;;;;;3.55;3.05;;;;;;;22.95;63.94;101764.13;4919368;29;20462;-77
2022/08/03 14:55:43;;;;;;;8.93;4.15;;;;;;;23.01;64.26;101767.84;4916986;29;20568;-77
2022/08/03 14:58:08;;;;;;;10.75;4.15;;;;;;;23.02;64.51;101753.22;4899635;29;20035;-72
2022/08/03 15:00:35;;;;;;;10.13;4.22;;;;;;;23.08;64.57;101755.88;4916706;29;20070;-75
2022/08/03 15:03:02;;;;;;;6.63;3.70;;;;;;;23.10;63.85;101761.09;4916493;29;20148;-73
2022/08/03 15:05:32;;;;;;;8.13;3.10;;;;;;;23.06;64.29;101757.97;4916517;29;20412;-74
2022/08/03 15:07:58;;;;;;;10.15;3.05;;;;;;;23.03;64.14;101749.44;4916545;29;20035;-74
2022/08/03 15:10:23;;;;;;;4.43;2.55;;;;;;;23.03;63.94;101749.44;4916299;29;20032;-74
2022/08/03 15:12:49;;;;;;;13.40;4.28;;;;;;;23.04;64.21;101749.22;4916000;29;20045;-75
2022/08/03 15:15:14;;;;;;;6.63;3.13;;;;;;;23.06;64.16;101741.69;4916489;29;20036;-75
2022/08/03 15:17:40;;;;;;;10.00;3.97;;;;;;;23.13;63.81;101747.91;4916907;29;20135;-75
2022/08/03 15:20:07;;;;;;;5.55;4.20;;;;;;;23.02;64.14;101728.75;4915996;29;20035;-74
2022/08/03 15:22:34;;;;;;;4.65;3.28;;;;;;;23.21;64.21;101748.69;4916176;29;20094;-74
2022/08/03 15:25:00;;;;;;;6.47;3.15;;;;;;;23.26;63.65;101757.00;4916122;29;20551;-75
2022/08/03 15:27:26;;;;;;;4.10;2.85;;;;;;;23.23;63.85;101741.13;4916074;29;20067;-74
2022/08/03 15:29:51;;;;;;;5.47;3.83;;;;;;;23.24;64.28;101753.66;4916034;29;20492;-71
2022/08/03 15:32:17;;;;;;;4.25;2.60;;;;;;;23.17;63.34;101745.59;4916468;29;20040;-75
2022/08/03 15:34:42;;;;;;;3.58;2.58;;;;;;;23.19;63.61;101748.91;4915507;29;20087;-74